createdAt,value
2018-03-02T00:00:25.691Z,37.10
2018-03-02T00:02:52.295Z,36.90
2018-03-02T00:05:18.969Z,37.50
2018-03-02T00:07:45.574Z,37.00
2018-03-02T00:10:12.178Z,37.60
2018-03-02T00:12:38.760Z,37.40
2018-03-02T00:15:05.334Z,38.40
2018-03-02T00:17:32.671Z,38.50
2018-03-02T00:19:59.252Z,38.50
2018-03-02T00:22:26.555Z,36.70
2018-03-02T00:24:53.153Z,36.70
2018-03-02T00:27:19.766Z,36.50
2018-03-02T00:29:47.113Z,37.60
2018-03-02T00:32:13.748Z,37.50
2018-03-02T00:34:41.091Z,38.00
2018-03-02T00:37:08.395Z,38.50
2018-03-02T00:39:34.962Z,37.90
2018-03-02T00:42:01.506Z,38.40
2018-03-02T00:44:28.084Z,38.30
2018-03-02T00:46:55.367Z,38.20
2018-03-02T00:49:21.921Z,38.20
2018-03-02T00:51:48.467Z,37.60
2018-03-02T00:54:15.125Z,38.10
2018-03-02T00:56:41.770Z,38.00
2018-03-02T00:59:08.884Z,37.60
2018-03-02T01:01:35.421Z,37.80
2018-03-02T01:04:02.778Z,38.20
2018-03-02T01:06:29.434Z,38.20
2018-03-02T01:08:56.789Z,38.80
2018-03-02T01:11:24.126Z,38.80
2018-03-02T01:13:50.755Z,38.80
2018-03-02T01:16:17.317Z,38.70
2018-03-02T01:18:44.753Z,38.90
2018-03-02T01:21:12.074Z,38.40
2018-03-02T01:23:38.928Z,38.40
2018-03-02T01:26:05.509Z,38.60
2018-03-02T01:28:32.822Z,38.40
2018-03-02T01:30:59.396Z,38.30
2018-03-02T01:33:25.998Z,38.70
2018-03-02T01:35:52.603Z,38.10
2018-03-02T01:38:19.894Z,38.00
2018-03-02T01:40:46.479Z,37.90
2018-03-02T01:43:13.126Z,37.80
2018-03-02T01:45:40.455Z,38.30
2018-03-02T01:48:07.040Z,38.30
2018-03-02T01:50:33.660Z,38.20
2018-03-02T01:53:00.267Z,38.10
2018-03-02T01:55:27.595Z,38.70
2018-03-02T01:57:54.192Z,38.60
2018-03-02T02:00:20.778Z,38.80
2018-03-02T02:02:48.120Z,39.20
2018-03-02T02:05:14.729Z,39.20
2018-03-02T02:07:41.327Z,39.30
2018-03-02T02:10:07.948Z,38.90
2018-03-02T02:12:34.550Z,38.80
2018-03-02T02:15:01.138Z,39.20
2018-03-02T02:17:28.667Z,39.90
2018-03-02T02:19:55.202Z,39.80
2018-03-02T02:22:22.481Z,41.30
2018-03-02T02:24:49.811Z,41.10
2018-03-02T02:27:16.383Z,41.00
2018-03-02T02:29:43.682Z,41.10
2018-03-02T02:32:10.236Z,41.10
2018-03-02T02:34:36.846Z,41.00
2018-03-02T02:37:03.490Z,41.80
2018-03-02T02:39:30.048Z,41.40
2018-03-02T02:41:56.964Z,41.40
2018-03-02T02:44:23.523Z,41.50
2018-03-02T02:46:50.073Z,40.60
2018-03-02T02:49:16.655Z,40.00
2018-03-02T02:51:43.205Z,40.00
2018-03-02T02:54:09.834Z,39.80
2018-03-02T02:56:36.378Z,39.50
2018-03-02T02:59:02.946Z,39.00
2018-03-02T03:01:29.552Z,38.90
2018-03-02T03:03:56.137Z,39.00
2018-03-02T03:06:22.939Z,39.60
2018-03-02T03:08:49.554Z,39.10
2018-03-02T03:11:16.136Z,39.20
2018-03-02T03:13:42.732Z,39.60
2018-03-02T03:16:09.337Z,40.50
2018-03-02T03:18:36.675Z,40.80
2018-03-02T03:21:03.230Z,40.80
2018-03-02T03:23:30.549Z,40.20
2018-03-02T03:25:57.102Z,40.10
2018-03-02T03:28:23.673Z,41.10
2018-03-02T03:30:50.947Z,40.90
2018-03-02T03:33:17.538Z,40.90
2018-03-02T03:35:44.857Z,41.60
2018-03-02T03:38:11.434Z,41.60
2018-03-02T03:40:38.090Z,40.60
2018-03-02T03:43:04.645Z,40.00
2018-03-02T03:45:32.023Z,40.70
2018-03-02T03:47:58.602Z,40.70
2018-03-02T03:50:25.258Z,40.10
2018-03-02T03:52:51.822Z,39.10
2018-03-02T03:55:18.398Z,38.70
2018-03-02T03:57:45.037Z,39.60
2018-03-02T04:00:11.667Z,39.20
2018-03-02T04:02:39.019Z,39.30
2018-03-02T04:05:05.612Z,39.20
2018-03-02T04:07:32.193Z,39.90
2018-03-02T04:09:58.726Z,40.00
2018-03-02T04:12:25.747Z,40.60
2018-03-02T04:14:52.302Z,40.90
2018-03-02T04:17:19.614Z,41.60
2018-03-02T04:19:46.182Z,41.60
2018-03-02T04:22:12.739Z,41.90
2018-03-02T04:24:39.285Z,42.10
2018-03-02T04:27:06.570Z,41.40
2018-03-02T04:29:33.159Z,41.40
2018-03-02T04:31:59.722Z,42.10
2018-03-02T04:34:27.039Z,41.10
2018-03-02T04:36:53.584Z,41.00
2018-03-02T04:39:20.183Z,40.70
2018-03-02T04:41:46.734Z,40.60
2018-03-02T04:44:13.324Z,41.20
2018-03-02T04:46:39.858Z,41.10
2018-03-02T04:49:07.446Z,41.40
2018-03-02T04:51:34.034Z,41.30
2018-03-02T04:54:00.566Z,41.60
2018-03-02T04:56:27.881Z,41.70
2018-03-02T04:58:54.481Z,41.70
2018-03-02T05:01:21.806Z,42.30
2018-03-02T05:03:48.708Z,42.30
2018-03-02T05:06:15.270Z,41.60
2018-03-02T05:08:41.890Z,41.80
2018-03-02T05:11:08.845Z,42.10
2018-03-02T05:13:35.564Z,42.40
2018-03-02T05:16:02.143Z,41.90
2018-03-02T05:18:28.786Z,41.10
2018-03-02T05:20:55.350Z,41.10
2018-03-02T05:23:22.673Z,41.60
2018-03-02T05:25:50.030Z,41.90
2018-03-02T05:28:16.589Z,41.80
2018-03-02T05:30:43.875Z,42.50
2018-03-02T05:33:10.706Z,42.40
2018-03-02T05:35:37.274Z,42.00
2018-03-02T05:38:03.862Z,42.00
2018-03-02T05:40:31.162Z,42.20
2018-03-02T05:42:57.701Z,42.10
2018-03-02T05:45:24.614Z,42.70
2018-03-02T05:47:51.155Z,42.60
2018-03-02T05:50:17.717Z,42.50
2018-03-02T05:52:44.283Z,42.20
2018-03-02T05:55:10.882Z,41.90
2018-03-02T05:57:37.521Z,42.30
2018-03-02T06:00:04.194Z,41.60
2018-03-02T06:02:31.497Z,42.20
2018-03-02T06:04:58.054Z,42.10
2018-03-02T06:07:24.654Z,42.10
2018-03-02T06:09:51.283Z,42.80
2018-03-02T06:12:18.976Z,41.80
2018-03-02T06:14:45.517Z,41.80
2018-03-02T06:17:12.109Z,41.90
2018-03-02T06:19:38.707Z,41.90
2018-03-02T06:22:05.362Z,41.50
2018-03-02T06:24:31.970Z,42.20
2018-03-02T06:26:58.533Z,42.00
2018-03-02T06:29:25.904Z,42.10
2018-03-02T06:31:52.484Z,42.10
2018-03-02T06:34:19.819Z,41.90
2018-03-02T06:36:46.411Z,41.90
2018-03-02T06:39:13.001Z,42.10
2018-03-02T06:41:39.588Z,42.30
2018-03-02T06:44:06.918Z,42.30
2018-03-02T06:46:33.494Z,42.30
2018-03-02T06:49:00.063Z,42.40
2018-03-02T06:51:26.661Z,42.50
2018-03-02T06:53:53.245Z,42.30
2018-03-02T06:56:19.893Z,41.90
2018-03-02T06:58:46.815Z,41.80
2018-03-02T07:01:13.440Z,42.10
2018-03-02T07:03:40.035Z,42.30
2018-03-02T07:06:07.514Z,41.60
2018-03-02T07:08:34.880Z,41.30
2018-03-02T07:11:01.447Z,41.20
2018-03-02T07:13:28.298Z,42.10
2018-03-02T07:15:54.866Z,41.80
2018-03-02T07:18:21.506Z,41.20
2018-03-02T07:20:48.847Z,41.30
2018-03-02T07:23:15.395Z,41.30
2018-03-02T07:25:42.251Z,41.90
2018-03-02T07:28:09.750Z,41.60
2018-03-02T07:30:36.301Z,41.80
2018-03-02T07:33:02.864Z,41.50
2018-03-02T07:35:29.421Z,41.80
2018-03-02T07:37:56.051Z,41.80
2018-03-02T07:40:22.668Z,40.70
2018-03-02T07:42:49.207Z,41.10
2018-03-02T07:45:15.758Z,41.30
2018-03-02T07:47:42.379Z,41.00
2018-03-02T07:50:08.939Z,40.50
2018-03-02T07:52:36.251Z,39.50
2018-03-02T07:55:02.843Z,39.50
2018-03-02T07:57:30.165Z,39.40
2018-03-02T07:59:56.719Z,39.30
2018-03-02T08:02:24.066Z,38.80
2018-03-02T08:04:50.643Z,38.70
2018-03-02T08:07:17.274Z,38.10
2018-03-02T08:09:43.878Z,35.90
2018-03-02T08:12:10.435Z,33.30
2018-03-02T08:14:37.046Z,31.30
2018-03-02T08:17:04.383Z,31.80
2018-03-02T08:19:30.990Z,31.70
2018-03-02T08:21:57.683Z,31.90
2018-03-02T08:24:25.019Z,26.00
2018-03-02T08:26:51.843Z,26.00
2018-03-02T08:29:18.427Z,23.10
2018-03-02T08:31:45.004Z,21.80
2018-03-02T08:34:11.576Z,19.90
2018-03-02T08:36:38.128Z,19.00
2018-03-02T08:39:04.793Z,18.60
2018-03-02T08:41:32.195Z,17.40
2018-03-02T08:43:59.741Z,18.20
2018-03-02T08:46:26.312Z,18.20
2018-03-02T08:48:52.907Z,15.70
2018-03-02T08:51:19.496Z,17.30
2018-03-02T08:53:46.064Z,17.70
2018-03-02T08:56:12.608Z,14.80
2018-03-02T08:58:39.188Z,16.50
2018-03-02T09:01:06.507Z,14.90
2018-03-02T09:03:33.094Z,14.90
2018-03-02T09:06:00.183Z,15.40
2018-03-02T09:08:26.743Z,15.70
2018-03-02T09:10:54.068Z,14.70
2018-03-02T09:13:20.976Z,14.70
2018-03-02T09:15:47.999Z,13.30
2018-03-02T09:18:14.592Z,13.80
2018-03-02T09:20:41.166Z,14.00
2018-03-02T09:23:07.734Z,15.10
2018-03-02T09:25:34.330Z,14.90
2018-03-02T09:28:00.886Z,14.30
2018-03-02T09:30:27.779Z,12.90
2018-03-02T09:32:54.346Z,13.90
2018-03-02T09:35:20.946Z,14.20
2018-03-02T09:37:47.512Z,12.20
2018-03-02T09:40:15.137Z,13.30
2018-03-02T09:42:41.708Z,13.30
2018-03-02T09:45:08.309Z,12.70
2018-03-02T09:47:34.912Z,12.20
2018-03-02T09:50:02.546Z,12.50
2018-03-02T09:52:29.115Z,12.40
2018-03-02T09:54:56.426Z,11.50
2018-03-02T09:57:23.054Z,11.30
2018-03-02T09:59:49.684Z,12.10
2018-03-02T10:02:16.282Z,12.40
2018-03-02T10:04:43.603Z,11.70
2018-03-02T10:07:10.177Z,11.70
2018-03-02T10:09:37.487Z,12.40
2018-03-02T10:12:04.399Z,12.40
2018-03-02T10:14:30.966Z,12.70
2018-03-02T10:16:57.512Z,14.60
2018-03-02T10:19:24.107Z,14.70
2018-03-02T10:21:50.697Z,14.60
2018-03-02T10:24:17.329Z,13.90
2018-03-02T10:26:43.893Z,14.70
2018-03-02T10:29:10.867Z,13.90
2018-03-02T10:31:37.543Z,14.00
2018-03-02T10:34:04.807Z,12.80
2018-03-02T10:36:31.404Z,12.80
2018-03-02T10:38:57.937Z,12.40
2018-03-02T10:41:24.510Z,13.00
2018-03-02T10:43:51.101Z,12.70
2018-03-02T10:46:17.674Z,14.00
2018-03-02T10:48:44.231Z,15.30
2018-03-02T10:51:10.787Z,15.10
2018-03-02T10:53:37.402Z,14.40
2018-03-02T10:56:04.717Z,14.60
2018-03-02T10:58:31.546Z,14.70
2018-03-02T11:00:58.149Z,14.60
2018-03-02T11:03:24.758Z,14.60
2018-03-02T11:05:52.471Z,14.70
2018-03-02T11:08:19.798Z,15.60
2018-03-02T11:10:47.074Z,16.80
2018-03-02T11:13:13.640Z,16.80
2018-03-02T11:15:40.226Z,16.40
2018-03-02T11:18:07.576Z,18.70
2018-03-02T11:20:34.162Z,18.50
2018-03-02T11:23:01.903Z,19.60
2018-03-02T11:25:28.458Z,20.30
2018-03-02T11:27:55.081Z,20.40
2018-03-02T11:30:21.682Z,20.40
2018-03-02T11:32:48.538Z,21.20
2018-03-02T11:35:15.841Z,21.60
2018-03-02T11:37:43.178Z,22.20
2018-03-02T11:40:09.806Z,22.10
2018-03-02T11:42:36.394Z,22.30
2018-03-02T11:45:02.997Z,22.90
2018-03-02T11:47:29.689Z,23.00
2018-03-02T11:49:57.386Z,22.50
2018-03-02T11:52:23.942Z,22.40
2018-03-02T11:54:50.529Z,23.30
2018-03-02T11:57:17.850Z,22.90
2018-03-02T11:59:45.199Z,23.30
2018-03-02T12:02:12.127Z,23.20
2018-03-02T12:04:38.719Z,23.20
2018-03-02T12:07:06.060Z,22.70
2018-03-02T12:09:33.394Z,23.50
2018-03-02T12:12:00.737Z,22.70
2018-03-02T12:14:27.555Z,22.70
2018-03-02T12:16:54.133Z,23.10
2018-03-02T12:19:20.674Z,22.30
2018-03-02T12:21:47.294Z,23.40
2018-03-02T12:24:13.860Z,22.80
2018-03-02T12:26:40.967Z,22.90
2018-03-02T12:29:07.554Z,23.50
2018-03-02T12:31:34.167Z,23.50
2018-03-02T12:34:01.486Z,23.20
2018-03-02T12:36:28.038Z,23.20
2018-03-02T12:38:55.362Z,23.40
2018-03-02T12:41:22.318Z,23.00
2018-03-02T12:43:48.895Z,23.40
2018-03-02T12:46:15.544Z,24.40
2018-03-02T12:48:42.313Z,25.20
2018-03-02T12:51:08.919Z,24.50
2018-03-02T12:53:37.084Z,25.80
2018-03-02T12:56:04.393Z,24.30
2018-03-02T12:58:30.981Z,24.20
2018-03-02T13:00:57.656Z,23.90
2018-03-02T13:03:24.259Z,23.40
2018-03-02T13:05:50.900Z,22.90
2018-03-02T13:08:17.458Z,23.50
2018-03-02T13:10:44.053Z,24.70
2018-03-02T13:13:11.431Z,24.20
2018-03-02T13:15:38.038Z,24.10
2018-03-02T13:18:05.420Z,24.00
2018-03-02T13:20:32.032Z,24.00
2018-03-02T13:22:58.690Z,24.50
2018-03-02T13:25:25.327Z,24.90
2018-03-02T13:28:11.022Z,24.70
2018-03-02T13:30:37.546Z,24.70
2018-03-02T13:33:23.438Z,26.20
2018-03-02T13:35:50.023Z,25.80
2018-03-02T13:38:16.605Z,25.70
2018-03-02T13:41:02.335Z,26.90
2018-03-02T13:43:29.627Z,26.80
2018-03-02T13:45:56.337Z,26.80
2018-03-02T13:48:42.142Z,26.60
2018-03-02T13:51:08.689Z,26.90
2018-03-02T13:53:35.323Z,28.10
2018-03-02T13:56:02.695Z,28.10
2018-03-02T13:58:29.324Z,28.00
2018-03-02T14:00:55.945Z,28.20
2018-03-02T14:03:40.811Z,28.10
2018-03-02T14:06:07.386Z,28.30
2018-03-02T14:08:33.983Z,28.70
2018-03-02T14:11:00.604Z,28.30
2018-03-02T14:13:27.524Z,28.30
2018-03-02T14:15:54.107Z,28.70
2018-03-02T14:18:20.739Z,28.10
2018-03-02T14:20:48.104Z,28.70
2018-03-02T14:23:14.754Z,28.70
2018-03-02T14:25:41.389Z,29.10
2018-03-02T14:28:08.020Z,28.90
2018-03-02T14:30:35.376Z,29.60
2018-03-02T14:33:02.894Z,29.60
2018-03-02T14:35:29.446Z,30.20
2018-03-02T14:37:56.022Z,30.10
2018-03-02T14:40:23.368Z,30.10
2018-03-02T14:42:50.710Z,30.10
2018-03-02T14:45:18.060Z,30.10
2018-03-02T14:47:44.959Z,30.00
2018-03-02T14:50:11.536Z,30.80
2018-03-02T14:52:38.151Z,31.20
2018-03-02T14:55:05.091Z,32.00
2018-03-02T14:57:31.678Z,33.10
2018-03-02T14:59:58.971Z,33.00
2018-03-02T15:02:25.987Z,32.90
2018-03-02T15:04:52.519Z,33.60
2018-03-02T15:07:19.113Z,34.60
2018-03-02T15:09:45.691Z,34.80
2018-03-02T15:12:12.324Z,33.80
2018-03-02T15:14:38.983Z,34.40
2018-03-02T15:17:05.548Z,35.10
2018-03-02T15:19:32.115Z,34.50
2018-03-02T15:21:58.713Z,34.80
2018-03-02T15:24:25.355Z,35.60
2018-03-02T15:26:51.951Z,35.60
2018-03-02T15:29:18.830Z,36.20
2018-03-02T15:31:45.473Z,36.70
2018-03-02T15:34:12.050Z,36.20
2018-03-02T15:36:39.408Z,39.00
2018-03-02T15:39:06.769Z,40.60
2018-03-02T15:41:34.099Z,41.60
2018-03-02T15:44:00.776Z,41.50
2018-03-02T15:46:27.334Z,43.50
2018-03-02T15:48:53.903Z,44.60
2018-03-02T15:51:21.340Z,45.80
2018-03-02T15:53:47.921Z,45.80
2018-03-02T15:56:14.556Z,45.60
2018-03-02T15:58:41.118Z,45.90
2018-03-02T16:01:07.689Z,47.00
2018-03-02T16:03:34.430Z,47.00
2018-03-02T16:06:01.055Z,47.30
2018-03-02T16:08:27.767Z,48.20
2018-03-02T16:10:54.369Z,49.70
2018-03-02T16:13:21.024Z,49.80
2018-03-02T16:15:48.372Z,50.40
2018-03-02T16:18:15.139Z,50.30
2018-03-02T16:20:41.927Z,50.50
2018-03-02T16:23:08.485Z,51.20
2018-03-02T16:25:35.110Z,51.30
2018-03-02T16:28:01.807Z,50.70
2018-03-02T16:30:28.489Z,51.70
2018-03-02T16:32:55.314Z,52.60
2018-03-02T16:35:21.899Z,52.60
2018-03-02T16:37:48.553Z,52.80
2018-03-02T16:40:15.153Z,53.10
2018-03-02T16:42:41.766Z,53.70
2018-03-02T16:45:08.375Z,53.50
2018-03-02T16:47:34.968Z,54.60
2018-03-02T16:50:01.652Z,55.30
2018-03-02T16:52:28.298Z,55.30
2018-03-02T16:54:54.927Z,55.00
2018-03-02T16:57:21.606Z,56.80
2018-03-02T16:59:48.195Z,56.80
2018-03-02T17:02:14.909Z,57.20
2018-03-02T17:04:41.759Z,57.60
2018-03-02T17:07:08.327Z,57.20
2018-03-02T17:09:34.908Z,58.10
2018-03-02T17:12:01.806Z,58.30
2018-03-02T17:14:28.401Z,58.40
2018-03-02T17:16:55.729Z,59.40
2018-03-02T17:19:22.672Z,59.40
2018-03-02T17:21:49.233Z,59.30
2018-03-02T17:24:16.544Z,60.40
2018-03-02T17:26:43.186Z,60.30
2018-03-02T17:29:09.746Z,60.80
2018-03-02T17:31:36.374Z,60.90
2018-03-02T17:34:03.746Z,61.80
2018-03-02T17:36:30.386Z,62.50
2018-03-02T17:38:57.005Z,61.50
2018-03-02T17:41:23.587Z,62.00
2018-03-02T17:43:50.151Z,62.30
2018-03-02T17:46:17.506Z,63.40
2018-03-02T17:48:44.929Z,63.90
2018-03-02T17:51:11.565Z,63.90
2018-03-02T17:53:38.151Z,63.80
2018-03-02T17:56:07.576Z,63.90
2018-03-02T17:58:34.964Z,64.10
2018-03-02T18:01:01.659Z,64.10
2018-03-02T18:03:28.241Z,64.40
2018-03-02T18:05:54.868Z,64.60
2018-03-02T18:08:21.626Z,65.00
2018-03-02T18:10:48.257Z,65.10
2018-03-02T18:13:14.934Z,65.00
2018-03-02T18:15:41.483Z,65.10
2018-03-02T18:18:08.089Z,65.30
2018-03-02T18:20:34.712Z,65.60
2018-03-02T18:23:01.300Z,65.60
2018-03-02T18:25:28.642Z,65.90
2018-03-02T18:27:56.018Z,66.50
2018-03-02T18:30:22.588Z,66.50
2018-03-02T18:32:49.189Z,67.30
2018-03-02T18:35:16.502Z,66.20
2018-03-02T18:37:43.063Z,66.10
2018-03-02T18:40:09.727Z,66.00
2018-03-02T18:42:37.074Z,65.60
2018-03-02T18:45:04.427Z,65.10
2018-03-02T18:47:31.114Z,65.10
2018-03-02T18:49:57.696Z,64.70
2018-03-02T18:52:24.558Z,64.10
2018-03-02T18:54:51.158Z,65.00
2018-03-02T18:57:17.829Z,64.40
2018-03-02T18:59:45.375Z,64.10
2018-03-02T19:02:12.680Z,64.20
2018-03-02T19:04:39.280Z,64.20
2018-03-02T19:07:05.963Z,64.30
2018-03-02T19:09:32.584Z,64.40
2018-03-02T19:11:59.179Z,64.10
2018-03-02T19:14:26.501Z,64.50
2018-03-02T19:16:53.071Z,64.40
2018-03-02T19:19:19.654Z,64.70
2018-03-02T19:21:46.475Z,64.90
2018-03-02T19:24:13.081Z,64.80
2018-03-02T19:26:39.726Z,64.70
2018-03-02T19:29:07.082Z,64.20
2018-03-02T19:31:33.675Z,64.00
2018-03-02T19:34:00.285Z,64.00
2018-03-02T19:36:27.060Z,63.90
2018-03-02T19:38:53.783Z,63.70
2018-03-02T19:41:20.377Z,63.70
2018-03-02T19:43:47.746Z,63.10
2018-03-02T19:46:14.356Z,63.00
2018-03-02T19:48:41.768Z,62.80
2018-03-02T19:51:08.738Z,62.80
2018-03-02T19:53:35.321Z,61.90
2018-03-02T19:56:01.891Z,62.40
2018-03-02T19:58:28.517Z,62.70
2018-03-02T20:00:55.174Z,62.30
2018-03-02T20:03:22.502Z,62.10
2018-03-02T20:05:49.085Z,62.90
2018-03-02T20:08:16.010Z,63.50
2018-03-02T20:10:42.595Z,63.40
2018-03-02T20:13:09.195Z,63.40
2018-03-02T20:15:36.630Z,63.00
2018-03-02T20:18:03.214Z,63.00
2018-03-02T20:20:30.515Z,63.00
2018-03-02T20:22:57.120Z,63.00
2018-03-02T20:25:23.859Z,63.10
2018-03-02T20:27:50.465Z,63.00
2018-03-02T20:30:17.841Z,63.70
2018-03-02T20:32:44.508Z,63.60
2018-03-02T20:35:11.086Z,63.70
2018-03-02T20:37:37.675Z,63.10
2018-03-02T20:40:04.313Z,62.90
2018-03-02T20:42:30.938Z,62.30
2018-03-02T20:44:57.591Z,62.40
2018-03-02T20:47:24.274Z,62.40
2018-03-02T20:49:50.880Z,62.00
2018-03-02T20:52:17.501Z,61.80
2018-03-02T20:54:44.119Z,61.30
2018-03-02T20:57:11.468Z,60.40
2018-03-02T20:59:38.810Z,59.50
2018-03-02T21:02:05.550Z,59.50
2018-03-02T21:04:32.876Z,60.40
2018-03-02T21:06:59.485Z,59.60
2018-03-02T21:09:26.067Z,59.90
2018-03-02T21:11:52.980Z,59.60
2018-03-02T21:14:19.548Z,59.40
2018-03-02T21:16:46.956Z,59.10
2018-03-02T21:19:13.567Z,59.80
2018-03-02T21:21:40.942Z,58.10
2018-03-02T21:24:07.550Z,58.10
2018-03-02T21:26:34.894Z,59.10
2018-03-02T21:29:01.482Z,59.00
2018-03-02T21:31:28.091Z,59.50
2018-03-02T21:33:54.720Z,59.20
2018-03-02T21:36:22.060Z,59.80
2018-03-02T21:38:49.405Z,59.70
2018-03-02T21:41:15.981Z,59.70
2018-03-02T21:43:42.641Z,59.30
2018-03-02T21:46:09.190Z,59.90
2018-03-02T21:48:35.758Z,60.30
2018-03-02T21:51:03.198Z,61.40
2018-03-02T21:53:29.774Z,60.60
2018-03-02T21:55:56.393Z,60.90
2018-03-02T21:58:23.734Z,60.90
2018-03-02T22:00:50.642Z,60.90
2018-03-02T22:03:17.217Z,60.40
2018-03-02T22:05:43.803Z,60.20
2018-03-02T22:08:10.390Z,61.30
2018-03-02T22:10:36.965Z,60.70
2018-03-02T22:13:03.624Z,60.80
2018-03-02T22:15:30.202Z,60.70
2018-03-02T22:17:57.542Z,60.50
2018-03-02T22:20:24.122Z,60.50
2018-03-02T22:22:50.769Z,59.70
2018-03-02T22:25:17.375Z,59.50
2018-03-02T22:27:44.710Z,60.10
2018-03-02T22:30:11.555Z,60.20
2018-03-02T22:32:38.127Z,60.20
2018-03-02T22:35:05.454Z,60.00
2018-03-02T22:37:32.763Z,59.60
2018-03-02T22:39:59.335Z,59.50
2018-03-02T22:42:25.883Z,59.00
2018-03-02T22:44:52.476Z,57.90
2018-03-02T22:47:19.089Z,57.90
2018-03-02T22:49:45.663Z,57.80
2018-03-02T22:52:12.242Z,57.70
2018-03-02T22:54:39.538Z,57.60
2018-03-02T22:57:06.112Z,57.60
2018-03-02T22:59:32.659Z,58.20
2018-03-02T23:01:59.254Z,58.40
2018-03-02T23:04:25.850Z,58.40
2018-03-02T23:06:52.420Z,58.80
2018-03-02T23:09:19.007Z,59.40
2018-03-02T23:11:46.350Z,58.70
2018-03-02T23:14:13.250Z,58.70
2018-03-02T23:16:39.799Z,59.10
2018-03-02T23:19:06.355Z,58.10
2018-03-02T23:21:32.992Z,58.00
2018-03-02T23:24:00.359Z,58.30
2018-03-02T23:26:27.695Z,57.30
2018-03-02T23:28:54.311Z,57.10
2018-03-02T23:31:21.622Z,57.30
2018-03-02T23:33:48.974Z,57.20
2018-03-02T23:36:16.299Z,57.90
2018-03-02T23:38:43.639Z,57.50
2018-03-02T23:41:10.918Z,57.20
2018-03-02T23:43:38.214Z,57.20
2018-03-02T23:46:04.798Z,57.20
2018-03-02T23:48:31.358Z,58.60
2018-03-02T23:50:58.657Z,58.00
2018-03-02T23:53:25.234Z,58.00
2018-03-02T23:55:52.845Z,57.60
2018-03-02T23:58:19.421Z,57.60
